Time;durP1;ratioP1;P1;durP2;ratioP2;P2;SDS_P1;SDS_P2;PMS_P1;PMS_P2;Temp;Humidity;BMP_temperature;BMP_pressure;BME280_temperature;BME280_humidity;BME280_pressure;Samples;Min_cycle;Max_cycle;Signal;HPM_P1;HPM_P2
2022/10/18 00:02:12;;;;;;;;;;;;;;;;;;5088174;28;20406;-51
2022/10/18 00:04:38;;;;;;;;;;;;;;;;;;5087062;28;19904;-49
2022/10/18 00:07:04;;;;;;;;;;;;;;;;;;5087359;28;19908;-49
2022/10/18 00:09:30;;;;;;;;;;;;;;;;;;5086654;28;19912;-51
2022/10/18 00:11:56;;;;;;;;;;;;;;;;;;5086522;28;19904;-49
2022/10/18 00:14:21;;;;;;;;;;;;;;;;;;5087002;28;19914;-48
2022/10/18 00:16:47;;;;;;;;;;;;;;;;;;5086482;28;19913;-51
2022/10/18 00:19:13;;;;;;;;;;;;;;;;;;5087531;28;20330;-49
2022/10/18 00:21:39;;;;;;;;;;;;;;;;;;5087253;28;19904;-51
2022/10/18 00:24:05;;;;;;;;;;;;;;;;;;5069756;28;19908;-49
2022/10/18 00:26:31;;;;;;;;;;;;;;;;;;5066947;28;19947;-48
2022/10/18 00:28:57;;;;;;;;;;;;;;;;;;5067359;28;19912;-50
2022/10/18 00:31:23;;;;;;;;;;;;;;;;;;5065452;28;19987;-47
2022/10/18 00:33:49;;;;;;;;;;;;;;;;;;5066807;28;19912;-50
2022/10/18 00:36:14;;;;;;;;;;;;;;;;;;5067565;28;19911;-46
2022/10/18 00:38:40;;;;;;;;;;;;;;;;;;5086661;28;19922;-49
2022/10/18 00:41:06;;;;;;;;;;;;;;;;;;5086974;28;19908;-51
2022/10/18 00:43:32;;;;;;;;;;;;;;;;;;5086922;28;19930;-50
2022/10/18 00:45:58;;;;;;;;;;;;;;;;;;5086827;28;19912;-49
2022/10/18 00:48:24;;;;;;;;;;;;;;;;;;5085230;28;20409;-51
2022/10/18 00:50:50;;;;;;;;;;;;;;;;;;5066792;28;19905;-52
2022/10/18 00:53:16;;;;;;;;;;;;;;;;;;5067694;28;20362;-50
2022/10/18 00:55:41;;;;;;;;;;;;;;;;;;5067105;28;19904;-51
2022/10/18 00:58:07;;;;;;;;;;;;;;;;;;5066899;28;20372;-51
2022/10/18 01:00:37;;;;;;;;;;;;;;;;;;5066354;28;19916;-52
2022/10/18 01:03:03;;;;;;;;;;;;;;;;;;5066618;28;20455;-47
2022/10/18 01:05:29;;;;;;;;;;;;;;;;;;5086327;28;20065;-48
2022/10/18 01:07:55;;;;;;;;;;;;;;;;;;5084985;28;19915;-47
2022/10/18 01:10:21;;;;;;;;;;;;;;;;;;5086413;28;19915;-49
2022/10/18 01:12:46;;;;;;;;;;;;;;;;;;5087327;28;20384;-50
2022/10/18 01:15:12;;;;;;;;;;;;;;;;;;5087387;28;19911;-51
2022/10/18 01:17:38;;;;;;;;;;;;;;;;;;5086519;28;19947;-51
2022/10/18 01:20:04;;;;;;;;;;;;;;;;;;5087750;28;19904;-49
2022/10/18 01:22:30;;;;;;;;;;;;;;;;;;5089464;28;20157;-48
2022/10/18 01:24:56;;;;;;;;;;;;;;;;;;5090470;28;19904;-48
2022/10/18 01:27:22;;;;;;;;;;;;;;;;;;5090150;28;19990;-50
2022/10/18 01:29:48;;;;;;;;;;;;;;;;;;5090157;28;19915;-52
2022/10/18 01:32:13;;;;;;;;;;;;;;;;;;5090714;28;20006;-50
2022/10/18 01:34:39;;;;;;;;;;;;;;;;;;5090026;28;19912;-51
2022/10/18 01:37:05;;;;;;;;;;;;;;;;;;5089815;28;19908;-51
2022/10/18 01:39:31;;;;;;;;;;;;;;;;;;5090051;28;19908;-48
2022/10/18 01:41:57;;;;;;;;;;;;;;;;;;5090139;28;19987;-51
2022/10/18 01:44:23;;;;;;;;;;;;;;;;;;5089914;28;19915;-50
2022/10/18 01:46:49;;;;;;;;;;;;;;;;;;5090297;28;20342;-48
2022/10/18 01:49:15;;;;;;;;;;;;;;;;;;5090594;28;19958;-51
2022/10/18 01:51:41;;;;;;;;;;;;;;;;;;5088826;28;20379;-47
2022/10/18 01:54:06;;;;;;;;;;;;;;;;;;5090023;28;19904;-50
2022/10/18 01:56:32;;;;;;;;;;;;;;;;;;5089471;28;20380;-48
2022/10/18 01:58:58;;;;;;;;;;;;;;;;;;5089091;28;19912;-49
2022/10/18 02:01:24;;;;;;;;;;;;;;;;;;5089181;28;19904;-53
2022/10/18 02:03:50;;;;;;;;;;;;;;;;;;5089969;28;19904;-49
2022/10/18 02:06:16;;;;;;;;;;;;;;;;;;5090367;28;19954;-50
2022/10/18 02:08:42;;;;;;;;;;;;;;;;;;5089457;28;20362;-51
2022/10/18 02:11:08;;;;;;;;;;;;;;;;;;5089241;28;19912;-49
2022/10/18 02:13:33;;;;;;;;;;;;;;;;;;5088549;28;19908;-46
2022/10/18 02:15:59;;;;;;;;;;;;;;;;;;5089425;28;19998;-48
2022/10/18 02:18:25;;;;;;;;;;;;;;;;;;5089423;28;20279;-50
2022/10/18 02:20:52;;;;;;;1.90;1.20;;;;;;;;;;5087950;28;20431;-48
2022/10/18 02:23:20;;;;;;;2.53;1.00;;;;;;;;;;5089312;28;20038;-47
2022/10/18 02:25:47;;;;;;;2.17;1.02;;;;;;;;;;5089337;28;20089;-48
2022/10/18 02:28:13;;;;;;;1.08;0.73;;;;;;;;;;5088955;28;20032;-50
2022/10/18 02:30:54;;;;;;;1.80;0.90;;;;;;;;;;5088119;28;20024;-50
2022/10/18 02:33:20;;;;;;;1.27;0.90;;;;;;;;;;5088672;28;20062;-50
2022/10/18 02:35:50;;;;;;;1.98;1.08;;;;;;;;;;5088633;28;20055;-51
2022/10/18 02:38:17;;;;;;;1.00;0.90;;;;;;;;;;5089341;28;20079;-48
2022/10/18 02:40:43;;;;;;;1.75;1.25;;;;;;;;;;5080185;28;20404;-51
2022/10/18 02:43:09;;;;;;;0.80;0.80;;;;;;;;;;5068316;28;20088;-49
2022/10/18 02:45:35;;;;;;;0.70;0.70;;;;;;;;;;5068186;28;20183;-48
2022/10/18 02:48:01;;;;;;;2.13;1.13;;;;;;;;;;5068390;28;20484;-49
2022/10/18 02:50:27;;;;;;;1.10;1.00;;;;;;;;;;5067843;28;20036;-50
2022/10/18 02:52:53;;;;;;;1.00;0.90;;;;;;;;;;5068176;28;20082;-47
2022/10/18 02:55:19;;;;;;;0.85;0.85;;;;;;;;;;5074138;28;20024;-48
2022/10/18 02:57:45;;;;;;;1.15;0.95;;;;;;;;;;5088479;28;20502;-49
2022/10/18 03:00:11;;;;;;;0.93;0.80;;;;;;;;;;5088282;28;20024;-49
2022/10/18 03:02:37;;;;;;;1.13;0.98;;;;;;;;;;5087821;28;20028;-49
2022/10/18 03:05:03;;;;;;;1.67;0.90;;;;;;;;;;5088200;28;20103;-48
2022/10/18 03:07:29;;;;;;;2.58;1.00;;;;;;;;;;5087676;28;20024;-50
2022/10/18 03:09:55;;;;;;;1.27;0.90;;;;;;;;;;5087307;28;20023;-50
2022/10/18 03:12:21;;;;;;;1.23;0.82;;;;;;;;;;5087690;28;20032;-51
2022/10/18 03:14:47;;;;;;;1.40;1.23;;;;;;;;;;5088675;28;20020;-47
2022/10/18 03:17:13;;;;;;;0.77;0.77;;;;;;;;;;5082944;28;20559;-50
2022/10/18 03:19:39;;;;;;;1.13;0.90;;;;;;;;;;5067269;28;20051;-52
2022/10/18 03:22:06;;;;;;;1.02;0.82;;;;;;;;;;5069903;28;20028;-50
2022/10/18 03:24:32;;;;;;;0.70;0.70;;;;;;;;;;5087489;28;20031;-51
2022/10/18 03:26:58;;;;;;;1.08;0.95;;;;;;;;;;5087510;28;20034;-52
2022/10/18 03:29:24;;;;;;;1.00;0.93;;;;;;;;;;5087236;28;20027;-47
2022/10/18 03:31:50;;;;;;;1.58;1.20;;;;;;;;;;5087727;28;20039;-50
2022/10/18 03:34:16;;;;;;;1.23;1.00;;;;;;;;;;5089554;28;20017;-50
2022/10/18 03:36:42;;;;;;;2.55;1.17;;;;;;;;;;5088438;28;20033;-47
2022/10/18 03:39:09;;;;;;;1.52;1.20;;;;;;;;;;5087405;28;20028;-47
2022/10/18 03:41:35;;;;;;;1.67;1.42;;;;;;;;;;5088385;28;20511;-50
2022/10/18 03:44:01;;;;;;;1.35;1.17;;;;;;;;;;5071790;28;20025;-49
2022/10/18 03:46:27;;;;;;;1.67;1.35;;;;;;;;;;5077259;28;20082;-51
2022/10/18 03:48:53;;;;;;;2.35;1.50;;;;;;;;;;5087694;28;20112;-47
2022/10/18 03:51:19;;;;;;;1.45;1.13;;;;;;;;;;5086128;28;20093;-48
2022/10/18 03:53:45;;;;;;;1.45;1.23;;;;;;;;;;5087992;28;20020;-47
2022/10/18 03:56:11;;;;;;;1.48;1.33;;;;;;;;;;5088062;28;20028;-51
2022/10/18 03:58:37;;;;;;;1.23;1.13;;;;;;;;;;5087982;28;20108;-51
2022/10/18 04:01:03;;;;;;;1.90;1.45;;;;;;;;;;5078552;28;20041;-47
2022/10/18 04:03:29;;;;;;;2.60;1.30;;;;;;;;;;5067755;28;20048;-51
2022/10/18 04:05:55;;;;;;;1.60;1.40;;;;;;;;;;5085395;28;20491;-51
2022/10/18 04:08:21;;;;;;;1.95;1.40;;;;;;;;;;5087365;28;20028;-50
2022/10/18 04:10:47;;;;;;;1.92;0.90;;;;;;;;;;5088206;28;20028;-49
2022/10/18 04:13:13;;;;;;;3.17;1.23;;;;;;;;;;5088650;28;20028;-47
2022/10/18 04:15:39;;;;;;;1.50;1.30;;;;;;;;;;5087940;28;20024;-50
2022/10/18 04:18:05;;;;;;;1.83;1.20;;;;;;;;;;5088056;28;20648;-52
2022/10/18 04:20:31;;;;;;;1.00;0.90;;;;;;;;;;5086065;28;20032;-51
2022/10/18 04:22:57;;;;;;;1.33;1.10;;;;;;;;;;5087362;28;20024;-48
2022/10/18 04:25:24;;;;;;;1.13;1.02;;;;;;;;;;5076116;28;20494;-51
2022/10/18 04:27:50;;;;;;;1.45;1.30;;;;;;;;;;5067790;28;20056;-50
2022/10/18 04:30:16;;;;;;;1.25;1.10;;;;;;;;;;5070703;28;20029;-51
2022/10/18 04:32:42;;;;;;;1.77;1.23;;;;;;;;;;5081433;28;20020;-50
2022/10/18 04:35:09;;;;;;;2.00;1.60;;;;;;;;;;5087924;28;20027;-48
2022/10/18 04:37:35;;;;;;;1.23;1.10;;;;;;;;;;5085427;28;20021;-50
2022/10/18 04:40:01;;;;;;;1.80;1.25;;;;;;;;;;5084187;28;20107;-47
2022/10/18 04:42:27;;;;;;;1.85;1.50;;;;;;;;;;5081267;28;20031;-48
2022/10/18 04:44:53;;;;;;;1.60;1.40;;;;;;;;;;5067668;28;20025;-51
2022/10/18 04:47:19;;;;;;;2.22;1.50;;;;;;;;;;5083410;28;20036;-50
2022/10/18 04:49:45;;;;;;;2.33;1.60;;;;;;;;;;5075542;28;20117;-49
2022/10/18 04:52:12;;;;;;;1.48;1.38;;;;;;;;;;5083851;28;20491;-50
2022/10/18 04:54:39;;;;;;;1.55;1.42;;;;;;;;;;5086340;28;20021;-50
2022/10/18 04:57:05;;;;;;;2.85;1.98;;;;;;;;;;5079723;28;20024;-48
2022/10/18 04:59:31;;;;;;;1.58;1.30;;;;;;;;;;5091759;28;20054;-49
2022/10/18 05:01:57;;;;;;;1.25;1.15;;;;;;;;;;5088358;28;20028;-47
2022/10/18 05:04:23;;;;;;;2.10;1.42;;;;;;;;;;5086845;28;20446;-50
2022/10/18 05:06:49;;;;;;;1.40;1.30;;;;;;;;;;5080754;28;20029;-48
2022/10/18 05:09:15;;;;;;;2.20;1.60;;;;;;;;;;5072652;28;20453;-49
2022/10/18 05:11:41;;;;;;;2.30;1.20;;;;;;;;;;5086644;28;20059;-50
2022/10/18 05:14:09;;;;;;;2.38;1.80;;;;;;;;;;5088942;28;20420;-50
2022/10/18 05:16:35;;;;;;;2.15;1.50;;;;;;;;;;5088063;28;20037;-50
2022/10/18 05:19:01;;;;;;;3.00;1.63;;;;;;;;;;5083265;28;20086;-50
2022/10/18 05:21:27;;;;;;;1.67;1.45;;;;;;;;;;5071253;28;20028;-51
2022/10/18 05:23:56;;;;;;;1.98;1.25;;;;;;;;;;5086569;28;20032;-50
2022/10/18 05:26:21;;;;;;;1.52;1.42;;;;;;;;;;5089557;28;20026;-50
2022/10/18 05:28:49;;;;;;;2.17;1.63;;;;;;;;;;5072139;28;20094;-49
2022/10/18 05:31:15;;;;;;;1.50;1.38;;;;;;;;;;5084613;28;20036;-49
2022/10/18 05:33:41;;;;;;;1.65;1.50;;;;;;;;;;5072344;28;20029;-49
2022/10/18 05:36:07;;;;;;;3.10;1.85;;;;;;;;;;5074480;28;20074;-50
2022/10/18 05:38:33;;;;;;;2.00;1.30;;;;;;;;;;5072754;28;20028;-51
2022/10/18 05:41:04;;;;;;;1.63;1.35;;;;;;;;;;5070679;28;20048;-50
2022/10/18 05:43:30;;;;;;;2.03;1.23;;;;;;;;;;5090058;28;20084;-50
2022/10/18 05:45:56;;;;;;;1.50;1.17;;;;;;;;;;5086970;28;20024;-51
2022/10/18 05:48:22;;;;;;;2.03;1.60;;;;;;;;;;5090145;28;20035;-51
2022/10/18 05:50:48;;;;;;;1.67;1.30;;;;;;;;;;5090810;28;20036;-48
2022/10/18 05:53:14;;;;;;;2.47;1.70;;;;;;;;;;5090973;28;20201;-48
2022/10/18 05:55:40;;;;;;;1.77;1.65;;;;;;;;;;5090518;28;20585;-46
2022/10/18 05:58:06;;;;;;;1.60;1.50;;;;;;;;;;5090846;28;20020;-50
2022/10/18 06:00:32;;;;;;;1.75;1.35;;;;;;;;;;5088810;28;20028;-51
2022/10/18 06:02:58;;;;;;;1.70;1.60;;;;;;;;;;5090737;28;20024;-48
2022/10/18 06:05:24;;;;;;;1.35;1.25;;;;;;;;;;5090474;28;20035;-49
2022/10/18 06:07:50;;;;;;;2.22;1.50;;;;;;;;;;5090377;28;20480;-48
2022/10/18 06:10:16;;;;;;;2.50;1.65;;;;;;;;;;5088534;28;20480;-50
2022/10/18 06:12:42;;;;;;;1.42;1.20;;;;;;;;;;5088229;28;20027;-51
2022/10/18 06:15:08;;;;;;;2.00;1.35;;;;;;;;;;5090541;28;20024;-50
2022/10/18 06:17:34;;;;;;;2.58;1.55;;;;;;;;;;5088192;28;20016;-48
2022/10/18 06:20:00;;;;;;;1.48;1.38;;;;;;;;;;5090309;28;20373;-46
2022/10/18 06:22:26;;;;;;;1.75;1.63;;;;;;;;;;5090548;28;20028;-48
2022/10/18 06:24:52;;;;;;;1.80;1.50;;;;;;;;;;5090286;28;20028;-47
2022/10/18 06:27:18;;;;;;;1.75;1.40;;;;;;;;;;5090104;28;20111;-48
2022/10/18 06:29:44;;;;;;;2.50;1.48;;;;;;;;;;5089612;28;20024;-48
2022/10/18 06:32:10;;;;;;;1.33;1.23;;;;;;;;;;5089262;28;20125;-47
2022/10/18 06:34:36;;;;;;;1.50;1.35;;;;;;;;;;5069863;28;20033;-51
2022/10/18 06:37:02;;;;;;;1.63;1.50;;;;;;;;;;5069727;28;20020;-48
2022/10/18 06:39:28;;;;;;;1.30;1.20;;;;;;;;;;5070039;28;20051;-47
2022/10/18 06:41:54;;;;;;;1.50;1.40;;;;;;;;;;5080708;28;20062;-49
2022/10/18 06:44:20;;;;;;;1.73;1.42;;;;;;;;;;5089687;28;20055;-48
2022/10/18 06:46:47;;;;;;;1.42;1.33;;;;;;;;;;5089393;28;20469;-49
2022/10/18 06:49:14;;;;;;;2.17;1.50;;;;;;;;;;5089765;28;20114;-49
2022/10/18 06:51:40;;;;;;;1.60;1.45;;;;;;;;;;5089220;28;20139;-49
2022/10/18 06:54:07;;;;;;;1.65;1.50;;;;;;;;;;5089634;28;20034;-50
2022/10/18 06:56:33;;;;;;;1.50;1.40;;;;;;;;;;5076882;28;20492;-49
2022/10/18 06:58:59;;;;;;;1.92;1.50;;;;;;;;;;5071365;28;20034;-50
2022/10/18 07:01:27;;;;;;;3.08;1.90;;;;;;;;;;5078099;28;20114;-47
2022/10/18 07:03:53;;;;;;;3.72;1.95;;;;;;;;;;5069491;28;20043;-51
2022/10/18 07:06:20;;;;;;;2.00;1.50;;;;;;;;;;5075456;28;20020;-49
2022/10/18 07:08:46;;;;;;;1.85;1.60;;;;;;;;;;5089130;28;20684;-48
2022/10/18 07:11:14;;;;;;;2.05;1.70;;;;;;;;;;5086774;28;20487;-48
2022/10/18 07:13:40;;;;;;;1.45;1.35;;;;;;;;;;5080809;28;20024;-48
2022/10/18 07:16:08;;;;;;;1.63;1.52;;;;;;;;;;5079847;28;20029;-51
2022/10/18 07:18:35;;;;;;;2.78;1.70;;;;;;;;;;5073051;28;20404;-47
2022/10/18 07:21:02;;;;;;;1.73;1.55;;;;;;;;;;5087669;28;20016;-51
2022/10/18 07:23:28;;;;;;;1.95;1.48;;;;;;;;;;5089825;28;20021;-50
2022/10/18 07:25:53;;;;;;;1.73;1.33;;;;;;;;;;5089837;28;20035;-51
2022/10/18 07:28:19;;;;;;;1.60;1.50;;;;;;;;;;5088520;28;20028;-51
2022/10/18 07:30:45;;;;;;;4.03;1.50;;;;;;;;;;5077657;28;20032;-48
2022/10/18 07:33:11;;;;;;;1.92;1.60;;;;;;;;;;5082179;28;20016;-48
2022/10/18 07:35:37;;;;;;;1.58;1.35;;;;;;;;;;5078835;28;20017;-47
2022/10/18 07:38:03;;;;;;;1.73;1.30;;;;;;;;;;5082836;28;20028;-50
2022/10/18 07:40:30;;;;;;;1.30;1.20;;;;;;;;;;5069259;28;20025;-49
2022/10/18 07:42:56;;;;;;;1.95;1.42;;;;;;;;;;5088489;28;20533;-50
2022/10/18 07:45:23;;;;;;;1.45;1.30;;;;;;;;;;5086748;28;20121;-50
2022/10/18 07:47:53;;;;;;;1.25;1.10;;;;;;;;;;5081927;28;20036;-51
2022/10/18 07:50:19;;;;;;;1.15;1.08;;;;;;;;;;5068504;28;20107;-50
2022/10/18 07:52:45;;;;;;;1.10;0.90;;;;;;;;;;5074890;28;20115;-49
2022/10/18 07:55:11;;;;;;;1.10;1.00;;;;;;;;;;5077702;28;20066;-49
2022/10/18 07:57:37;;;;;;;1.20;1.10;;;;;;;;;;5071491;28;20051;-51
2022/10/18 08:00:03;;;;;;;1.10;1.00;;;;;;;;;;5068132;28;20111;-49
2022/10/18 08:02:29;;;;;;;1.40;0.90;;;;;;;;;;5067874;28;20024;-50
2022/10/18 08:04:55;;;;;;;0.90;0.90;;;;;;;;;;5074556;28;20039;-50
2022/10/18 08:07:21;;;;;;;1.10;1.00;;;;;;;;;;5084066;28;20039;-48
2022/10/18 08:09:47;;;;;;;1.42;1.00;;;;;;;;;;5083582;28;20456;-46
2022/10/18 08:12:14;;;;;;;1.15;1.00;;;;;;;;;;5079840;28;20030;-47
2022/10/18 08:14:40;;;;;;;0.82;0.82;;;;;;;;;;5086917;28;20020;-49
2022/10/18 08:17:06;;;;;;;2.17;1.05;;;;;;;;;;5087694;28;20020;-46
2022/10/18 08:19:32;;;;;;;0.82;0.80;;;;;;;;;;5067908;28;20422;-47
2022/10/18 08:21:58;;;;;;;0.90;0.90;;;;;;;;;;5067869;28;20040;-46
2022/10/18 08:24:24;;;;;;;0.80;0.80;;;;;;;;;;5067494;28;20032;-46
2022/10/18 08:26:50;;;;;;;0.75;0.60;;;;;;;;;;5067614;28;20278;-47
2022/10/18 08:29:16;;;;;;;0.65;0.65;;;;;;;;;;5070904;28;20031;-47
2022/10/18 08:31:42;;;;;;;0.60;0.60;;;;;;;;;;5075002;28;20029;-47
2022/10/18 08:34:08;;;;;;;0.82;0.80;;;;;;;;;;5068367;28;20035;-47
2022/10/18 08:36:34;;;;;;;0.50;0.50;;;;;;;;;;5067445;28;20453;-49
2022/10/18 08:39:02;;;;;;;0.60;0.60;;;;;;;;;;5067714;28;20503;-46
2022/10/18 08:41:36;;;;;;;0.70;0.70;;;;;;;;;;5076395;28;20047;-46
2022/10/18 08:44:26;;;;;;;0.70;0.70;;;;;;;;;;5085952;28;20032;-47
2022/10/18 08:46:54;;;;;;;0.70;0.70;;;;;;;;;;5084975;28;20039;-47
2022/10/18 08:49:31;;;;;;;0.77;0.77;;;;;;;;;;5087312;28;20089;-47
2022/10/18 08:51:58;;;;;;;1.05;0.90;;;;;;;;;;5085105;28;20103;-46
2022/10/18 08:54:31;;;;;;;0.70;0.70;;;;;;;;;;5086275;28;20020;-47
2022/10/18 08:57:01;;;;;;;1.20;0.65;;;;;;;;;;5087588;28;20035;-46
2022/10/18 08:59:32;;;;;;;1.30;1.00;;;;;;;;;;5075314;28;20029;-46
2022/10/18 09:02:10;;;;;;;1.00;1.00;;;;;;;;;;5067539;28;20025;-48
2022/10/18 09:04:39;;;;;;;1.15;1.05;;;;;;;;;;5067190;28;20029;-47
2022/10/18 09:07:14;;;;;;;1.15;1.05;;;;;;;;;;5067690;28;20495;-47
2022/10/18 09:09:51;;;;;;;0.93;0.90;;;;;;;;;;5067911;28;20028;-51
2022/10/18 09:12:33;;;;;;;0.80;0.80;;;;;;;;;;5067364;28;20028;-50
2022/10/18 09:15:02;;;;;;;2.35;1.10;;;;;;;;;;5067361;28;20034;-49
2022/10/18 09:17:28;;;;;;;1.50;0.88;;;;;;;;;;5068094;28;20036;-48
2022/10/18 09:20:00;;;;;;;0.77;0.70;;;;;;;;;;5085526;28;20097;-49
2022/10/18 09:22:41;;;;;;;0.82;0.82;;;;;;;;;;5086141;28;20039;-50
2022/10/18 09:25:16;;;;;;;0.70;0.60;;;;;;;;;;5088067;28;20106;-49
2022/10/18 09:27:51;;;;;;;1.15;0.80;;;;;;;;;;5083093;28;20040;-47
2022/10/18 09:30:32;;;;;;;0.88;0.80;;;;;;;;;;5081755;28;20024;-50
2022/10/18 09:33:10;;;;;;;0.73;0.73;;;;;;;;;;5081391;28;20028;-50
2022/10/18 09:35:42;;;;;;;0.80;0.80;;;;;;;;;;5083408;28;20515;-47
2022/10/18 09:38:10;;;;;;;0.90;0.75;;;;;;;;;;5074474;28;20020;-48
2022/10/18 09:40:42;;;;;;;1.08;0.77;;;;;;;;;;5068874;28;20032;-49
2022/10/18 09:43:15;;;;;;;0.73;0.73;;;;;;;;;;5071599;28;20036;-50
2022/10/18 09:45:43;;;;;;;0.63;0.63;;;;;;;;;;5070607;28;20032;-50
2022/10/18 09:48:15;;;;;;;0.90;0.80;;;;;;;;;;5071261;28;20050;-49
2022/10/18 09:50:43;;;;;;;0.68;0.68;;;;;;;;;;5090895;28;20423;-49
2022/10/18 09:53:11;;;;;;;0.57;0.57;;;;;;;;;;5078500;28;20046;-51
2022/10/18 09:55:40;;;;;;;0.60;0.60;;;;;;;;;;5090636;28;20027;-48
2022/10/18 09:58:07;;;;;;;1.58;0.90;;;;;;;;;;5090830;28;20029;-49
2022/10/18 10:00:35;;;;;;;0.60;0.60;;;;;;;;;;5088267;28;20407;-51
2022/10/18 10:03:06;;;;;;;0.68;0.60;;;;;;;;;;5087380;28;20290;-50
2022/10/18 10:05:32;;;;;;;1.27;0.85;;;;;;;;;;5089767;28;20036;-50
2022/10/18 10:08:01;;;;;;;0.60;0.60;;;;;;;;;;5090653;28;20035;-51
2022/10/18 10:10:29;;;;;;;0.63;0.63;;;;;;;;;;5088452;28;20032;-50
2022/10/18 10:13:06;;;;;;;1.00;0.70;;;;;;;;;;5090347;28;20024;-50
2022/10/18 10:15:34;;;;;;;1.25;0.70;;;;;;;;;;5085576;28;20031;-49
2022/10/18 10:18:00;;;;;;;0.98;0.80;;;;;;;;;;5071068;28;20573;-48
2022/10/18 10:20:26;;;;;;;0.60;0.60;;;;;;;;;;5082171;28;20028;-48
2022/10/18 10:22:53;;;;;;;0.85;0.70;;;;;;;;;;5090235;28;20494;-49
2022/10/18 10:25:25;;;;;;;0.60;0.60;;;;;;;;;;5077900;28;20109;-49
2022/10/18 10:27:51;;;;;;;1.08;0.60;;;;;;;;;;5089287;28;20036;-51
2022/10/18 10:30:26;;;;;;;1.25;0.95;;;;;;;;;;5089994;28;20449;-47
2022/10/18 10:32:53;;;;;;;0.90;0.90;;;;;;;;;;5076712;28;20032;-49
2022/10/18 10:35:34;;;;;;;0.80;0.80;;;;;;;;;;5087274;28;20021;-50
2022/10/18 10:38:00;;;;;;;1.95;0.90;;;;;;;;;;5086496;28;20024;-51
2022/10/18 10:40:29;;;;;;;0.82;0.70;;;;;;;;;;5089389;28;20024;-52
2022/10/18 10:43:04;;;;;;;0.93;0.73;;;;;;;;;;5089940;28;20019;-49
2022/10/18 10:45:35;;;;;;;0.93;0.80;;;;;;;;;;5088158;28;20055;-48
2022/10/18 10:48:06;;;;;;;0.98;0.90;;;;;;;;;;5088950;28;20024;-49
2022/10/18 10:50:33;;;;;;;1.98;0.98;;;;;;;;;;5087885;28;20020;-51
2022/10/18 10:52:59;;;;;;;1.13;0.98;;;;;;;;;;5088431;28;20069;-48
2022/10/18 10:55:28;;;;;;;1.15;1.02;;;;;;;;;;5088094;28;20024;-48
2022/10/18 10:57:55;;;;;;;0.90;0.90;;;;;;;;;;5088341;28;20403;-49
2022/10/18 11:00:33;;;;;;;1.52;0.98;;;;;;;;;;5088095;28;20028;-47
2022/10/18 11:03:10;;;;;;;0.90;0.80;;;;;;;;;;5088383;28;20095;-49
2022/10/18 11:06:05;;;;;;;2.70;0.82;;;;;;;;;;5087919;28;20028;-50
2022/10/18 11:08:35;;;;;;;1.20;1.00;;;;;;;;;;5082998;28;20036;-48
2022/10/18 11:11:19;;;;;;;1.17;1.08;;;;;;;;;;5087855;28;20024;-49
2022/10/18 11:13:57;;;;;;;1.02;0.85;;;;;;;;;;5088660;28;20020;-48
2022/10/18 11:16:32;;;;;;;0.90;0.90;;;;;;;;;;5087671;28;20051;-47
2022/10/18 11:18:59;;;;;;;0.80;0.80;;;;;;;;;;5088645;28;20055;-52
2022/10/18 11:21:27;;;;;;;0.60;0.60;;;;;;;;;;5086667;28;20471;-49
2022/10/18 11:23:53;;;;;;;0.90;0.90;;;;;;;;;;5086164;28;20039;-48
2022/10/18 11:26:32;;;;;;;0.93;0.90;;;;;;;;;;5088456;28;20035;-48
2022/10/18 11:29:13;;;;;;;0.82;0.80;;;;;;;;;;5085970;28;20028;-48
2022/10/18 11:32:00;;;;;;;0.68;0.60;;;;;;;;;;5088544;28;20027;-52
2022/10/18 11:34:26;;;;;;;0.70;0.63;;;;;;;;;;5088545;28;20093;-51
2022/10/18 11:36:58;;;;;;;0.68;0.60;;;;;;;;;;5088509;28;20507;-48
2022/10/18 11:39:24;;;;;;;0.95;0.82;;;;;;;;;;5080181;28;20035;-48
2022/10/18 11:41:54;;;;;;;1.25;0.80;;;;;;;;;;5083329;28;20032;-50
2022/10/18 11:44:25;;;;;;;0.70;0.70;;;;;;;;;;5087083;28;20031;-46
2022/10/18 11:47:05;;;;;;;0.77;0.77;;;;;;;;;;5079147;28;20104;-50
2022/10/18 11:49:33;;;;;;;1.33;1.20;;;;;;;;;;5080076;28;20118;-50
2022/10/18 11:52:02;;;;;;;1.25;1.00;;;;;;;;;;5078609;28;20029;-47
2022/10/18 11:54:31;;;;;;;1.10;1.00;;;;;;;;;;5086909;28;20103;-50
2022/10/18 11:57:16;;;;;;;0.95;0.95;;;;;;;;;;5086463;28;20047;-50
2022/10/18 12:00:14;;;;;;;0.75;0.75;;;;;;;;;;5087078;28;20020;-50
2022/10/18 12:03:19;;;;;;;1.30;1.10;;;;;;;;;;5061841;28;20056;-49
2022/10/18 12:05:46;;;;;;;1.40;1.30;;;;;;;;;;5026793;28;20049;-50
2022/10/18 12:08:12;;;;;;;1.10;1.00;;;;;;;;;;5040243;28;20064;-51
2022/10/18 12:10:41;;;;;;;1.08;1.00;;;;;;;;;;5061289;28;20082;-51
2022/10/18 12:13:07;;;;;;;1.27;1.10;;;;;;;;;;5082100;28;20032;-50
2022/10/18 12:15:36;;;;;;;0.90;0.90;;;;;;;;;;5075320;28;20060;-50
2022/10/18 12:18:07;;;;;;;1.40;1.27;;;;;;;;;;5083550;28;20032;-50
2022/10/18 12:20:35;;;;;;;1.38;1.27;;;;;;;;;;5080046;28;20530;-48
2022/10/18 12:23:03;;;;;;;1.00;0.90;;;;;;;;;;5085589;28;20055;-47
2022/10/18 12:25:30;;;;;;;1.20;0.95;;;;;;;;;;5086030;28;20023;-48
2022/10/18 12:28:08;;;;;;;1.27;1.17;;;;;;;;;;5070752;28;20038;-47
2022/10/18 12:30:38;;;;;;;1.20;1.10;;;;;;;;;;5065677;28;20411;-50
2022/10/18 12:33:09;;;;;;;4.18;1.70;;;;;;;;;;5066139;28;20025;-47
2022/10/18 12:35:41;;;;;;;1.63;1.45;;;;;;;;;;5065469;28;20025;-47
2022/10/18 12:38:16;;;;;;;1.60;1.20;;;;;;;;;;5068516;28;20067;-48
2022/10/18 12:40:44;;;;;;;1.67;1.40;;;;;;;;;;5084658;28;20026;-52
2022/10/18 12:43:16;;;;;;;1.52;1.30;;;;;;;;;;5086219;28;20592;-48
2022/10/18 12:45:51;;;;;;;1.83;1.50;;;;;;;;;;5080719;28;20043;-48
2022/10/18 12:48:37;;;;;;;1.42;1.20;;;;;;;;;;5079638;28;20146;-49
2022/10/18 12:51:15;;;;;;;0.90;0.90;;;;;;;;;;5066793;28;20041;-52
2022/10/18 12:53:49;;;;;;;1.25;1.15;;;;;;;;;;5066061;28;20032;-49
2022/10/18 12:56:27;;;;;;;1.10;1.00;;;;;;;;;;5086620;28;20032;-49
2022/10/18 12:59:12;;;;;;;1.42;1.20;;;;;;;;;;5086591;28;20050;-48
2022/10/18 13:01:51;;;;;;;1.05;1.00;;;;;;;;;;5085373;28;20020;-48
2022/10/18 13:04:26;;;;;;;1.30;1.20;;;;;;;;;;5078617;28;20047;-47
2022/10/18 13:06:58;;;;;;;0.90;0.90;;;;;;;;;;5075911;28;20024;-49
2022/10/18 13:09:24;;;;;;;0.98;0.82;;;;;;;;;;5074843;28;20024;-48
2022/10/18 13:11:52;;;;;;;0.80;0.80;;;;;;;;;;5082427;28;20112;-48
2022/10/18 13:14:36;;;;;;;0.80;0.80;;;;;;;;;;5072666;28;20017;-49
2022/10/18 13:17:12;;;;;;;1.20;1.00;;;;;;;;;;5090326;28;20203;-51
2022/10/18 13:19:38;;;;;;;1.02;0.93;;;;;;;;;;5091497;28;20020;-50
2022/10/18 13:22:16;;;;;;;0.98;0.93;;;;;;;;;;5091256;28;20463;-50
2022/10/18 13:25:03;;;;;;;1.23;0.82;;;;;;;;;;5090350;28;20098;-49
2022/10/18 13:27:32;;;;;;;0.73;0.73;;;;;;;;;;5083721;28;20130;-50
2022/10/18 13:30:27;;;;;;;0.63;0.63;;;;;;;;;;5087381;28;20016;-51
2022/10/18 13:32:56;;;;;;;0.70;0.70;;;;;;;;;;5065560;28;20044;-50
2022/10/18 13:35:41;;;;;;;0.80;0.80;;;;;;;;;;5073774;28;20103;-48
2022/10/18 13:38:27;;;;;;;0.90;0.90;;;;;;;;;;5089750;28;20546;-51
2022/10/18 13:41:01;;;;;;;0.93;0.80;;;;;;;;;;5075711;28;20028;-50
2022/10/18 13:43:45;;;;;;;0.68;0.68;;;;;;;;;;5089190;28;20043;-48
2022/10/18 13:46:11;;;;;;;0.70;0.70;;;;;;;;;;5089905;28;20031;-49
2022/10/18 13:48:37;;;;;;;0.75;0.70;;;;;;;;;;5087516;28;20028;-47
2022/10/18 13:51:18;;;;;;;0.65;0.65;;;;;;;;;;5089127;28;20036;-49
2022/10/18 13:53:54;;;;;;;0.63;0.63;;;;;;;;;;5088415;28;20517;-48
2022/10/18 13:56:20;;;;;;;1.17;0.60;;;;;;;;;;5089675;28;20091;-47
2022/10/18 13:58:59;;;;;;;0.90;0.73;;;;;;;;;;5078764;28;20506;-50
2022/10/18 14:01:34;;;;;;;0.77;0.70;;;;;;;;;;5068799;28;20103;-50
2022/10/18 14:04:00;;;;;;;0.80;0.60;;;;;;;;;;5070669;28;20102;-51
2022/10/18 14:06:28;;;;;;;0.60;0.50;;;;;;;;;;5068926;28;20473;-51
2022/10/18 14:09:02;;;;;;;0.55;0.55;;;;;;;;;;5068881;28;20404;-48
2022/10/18 14:11:28;;;;;;;0.82;0.82;;;;;;;;;;5068842;28;20025;-48
2022/10/18 14:13:57;;;;;;;0.85;0.75;;;;;;;;;;5079949;28;20043;-52
2022/10/18 14:16:38;;;;;;;0.60;0.60;;;;;;;;;;5071967;28;20037;-47
2022/10/18 14:19:08;;;;;;;0.60;0.60;;;;;;;;;;5068905;28;20024;-49
2022/10/18 14:21:37;;;;;;;0.60;0.60;;;;;;;;;;5068992;28;20070;-48
2022/10/18 14:24:09;;;;;;;0.70;0.70;;;;;;;;;;5080035;28;20036;-50
2022/10/18 14:26:35;;;;;;;0.68;0.68;;;;;;;;;;5088414;28;20060;-51
2022/10/18 14:29:15;;;;;;;0.70;0.70;;;;;;;;;;5087084;28;20052;-50
2022/10/18 14:31:41;;;;;;;1.67;0.75;;;;;;;;;;5088676;28;20095;-48
2022/10/18 14:34:12;;;;;;;0.95;0.85;;;;;;;;;;5088869;28;20050;-47
2022/10/18 14:36:42;;;;;;;0.60;0.60;;;;;;;;;;5086502;28;20543;-48
2022/10/18 14:39:16;;;;;;;0.63;0.63;;;;;;;;;;5088691;28;20105;-47
2022/10/18 14:41:55;;;;;;;0.80;0.80;;;;;;;;;;5088108;28;20425;-47
2022/10/18 14:44:26;;;;;;;0.77;0.77;;;;;;;;;;5088434;28;20026;-50
2022/10/18 14:46:58;;;;;;;0.70;0.70;;;;;;;;;;5087668;28;20032;-51
2022/10/18 14:49:24;;;;;;;0.82;0.80;;;;;;;;;;5088046;28;20491;-46
2022/10/18 14:51:52;;;;;;;3.15;0.80;;;;;;;;;;5088601;28;20034;-48
2022/10/18 14:54:27;;;;;;;1.10;0.90;;;;;;;;;;5088480;28;20095;-47
2022/10/18 14:56:53;;;;;;;1.92;0.70;;;;;;;;;;5086786;28;20444;-47
2022/10/18 14:59:26;;;;;;;1.38;1.00;;;;;;;;;;5087920;28;20036;-49
2022/10/18 15:01:59;;;;;;;1.02;0.93;;;;;;;;;;5088465;28;20034;-47
2022/10/18 15:04:31;;;;;;;0.93;0.82;;;;;;;;;;5087803;28;20111;-49
2022/10/18 15:06:58;;;;;;;2.50;0.80;;;;;;;;;;5087498;28;20024;-51
2022/10/18 15:09:24;;;;;;;0.65;0.65;;;;;;;;;;5087740;28;20411;-49
2022/10/18 15:11:53;;;;;;;0.60;0.60;;;;;;;;;;5087885;28;20111;-47